createdAt,value
2023-01-01T00:01:26.272Z,8.30
2023-01-01T00:03:54.025Z,8.20
2023-01-01T00:06:21.099Z,8.20
2023-01-01T00:08:48.328Z,8.30
2023-01-01T00:11:15.268Z,8.10
2023-01-01T00:13:42.798Z,8.30
2023-01-01T00:16:11.225Z,8.40
2023-01-01T00:18:38.967Z,8.40
2023-01-01T00:21:06.746Z,8.40
2023-01-01T00:23:34.163Z,8.20
2023-01-01T00:26:01.108Z,8.20
2023-01-01T00:28:28.017Z,8.40
2023-01-01T00:30:55.187Z,8.40
2023-01-01T00:33:22.049Z,8.30
2023-01-01T00:35:48.918Z,8.20
2023-01-01T00:38:15.879Z,8.20
2023-01-01T00:40:42.684Z,8.10
2023-01-01T00:43:09.581Z,8.10
2023-01-01T00:45:36.415Z,8.10
2023-01-01T00:48:03.377Z,8.30
2023-01-01T00:50:30.223Z,8.20
2023-01-01T00:52:57.073Z,8.60
2023-01-01T00:55:23.919Z,8.40
2023-01-01T00:57:50.766Z,8.30
2023-01-01T01:00:17.916Z,8.20
2023-01-01T01:02:44.927Z,8.10
2023-01-01T01:05:11.940Z,8.00
2023-01-01T01:07:39.251Z,8.00
2023-01-01T01:10:06.927Z,7.90
2023-01-01T01:12:34.598Z,7.90
2023-01-01T01:15:01.652Z,7.90
2023-01-01T01:17:29.663Z,7.90
2023-01-01T01:19:56.588Z,8.20
2023-01-01T01:22:28.305Z,8.20
2023-01-01T01:24:56.344Z,8.10
2023-01-01T01:27:23.324Z,8.10
2023-01-01T01:29:50.215Z,8.00
2023-01-01T01:32:17.096Z,8.00
2023-01-01T01:34:43.947Z,7.70
2023-01-01T01:37:12.012Z,7.60
2023-01-01T01:39:39.229Z,7.60
2023-01-01T01:42:06.696Z,7.50
2023-01-01T01:44:46.384Z,7.60
2023-01-01T01:47:20.401Z,7.50
2023-01-01T01:49:47.805Z,7.40
2023-01-01T01:52:14.878Z,7.40
2023-01-01T01:54:42.347Z,7.30
2023-01-01T01:57:10.993Z,7.30
2023-01-01T01:59:40.462Z,7.20
2023-01-01T02:02:10.213Z,7.10
2023-01-01T02:04:37.153Z,7.10
2023-01-01T02:07:04.231Z,7.00
2023-01-01T02:09:31.095Z,7.00
2023-01-01T02:11:58.821Z,6.90
2023-01-01T02:14:25.708Z,7.00
2023-01-01T02:17:12.795Z,7.00
2023-01-01T02:19:58.640Z,6.90
2023-01-01T02:22:28.467Z,6.90
2023-01-01T02:25:14.113Z,7.00
2023-01-01T02:27:46.871Z,6.90
2023-01-01T02:30:14.400Z,7.20
2023-01-01T02:32:46.769Z,7.50
2023-01-01T02:35:34.795Z,7.20
2023-01-01T02:38:20.068Z,6.90
2023-01-01T02:40:51.425Z,6.80
2023-01-01T02:43:23.138Z,6.80
2023-01-01T02:45:53.318Z,6.70
2023-01-01T02:48:40.289Z,6.80
2023-01-01T02:51:13.379Z,6.90
2023-01-01T02:53:58.561Z,6.90
2023-01-01T02:56:34.487Z,6.80
2023-01-01T02:59:20.004Z,6.80
2023-01-01T03:01:49.137Z,7.00
2023-01-01T03:04:29.260Z,7.10
2023-01-01T03:07:02.662Z,7.30
2023-01-01T03:09:35.313Z,7.40
2023-01-01T03:12:05.790Z,7.50
2023-01-01T03:14:45.107Z,7.30
2023-01-01T03:17:23.668Z,7.20
2023-01-01T03:19:51.636Z,7.00
2023-01-01T03:22:19.966Z,6.80
2023-01-01T03:24:46.814Z,6.80
2023-01-01T03:27:15.881Z,6.70
2023-01-01T03:29:43.561Z,6.70
2023-01-01T03:32:15.530Z,6.70
2023-01-01T03:34:45.467Z,6.80
2023-01-01T03:37:14.371Z,6.80
2023-01-01T03:39:51.656Z,6.80
2023-01-01T03:42:32.232Z,6.70
2023-01-01T03:45:08.201Z,6.70
2023-01-01T03:47:35.377Z,6.90
2023-01-01T03:50:02.753Z,7.00
2023-01-01T03:52:32.338Z,7.00
2023-01-01T03:54:59.696Z,6.80
2023-01-01T03:57:35.790Z,6.80
2023-01-01T04:00:05.126Z,6.80
2023-01-01T04:02:44.951Z,6.60
2023-01-01T04:05:12.556Z,6.50
2023-01-01T04:07:39.460Z,6.40
2023-01-01T04:10:17.456Z,6.50
2023-01-01T04:12:45.974Z,6.40
2023-01-01T04:15:12.899Z,6.50
2023-01-01T04:17:39.745Z,6.50
2023-01-01T04:20:07.831Z,6.40
2023-01-01T04:22:35.020Z,6.30
2023-01-01T04:25:02.216Z,6.50
2023-01-01T04:27:29.057Z,6.40
2023-01-01T04:29:55.931Z,6.30
2023-01-01T04:32:23.239Z,6.30
2023-01-01T04:34:50.069Z,6.30
2023-01-01T04:37:16.946Z,6.40
2023-01-01T04:39:43.812Z,6.60
2023-01-01T04:42:10.601Z,6.70
2023-01-01T04:44:37.593Z,6.70
2023-01-01T04:47:04.605Z,6.80
2023-01-01T04:49:31.511Z,6.80
2023-01-01T04:51:58.457Z,6.70
2023-01-01T04:54:25.269Z,6.70
2023-01-01T04:56:52.098Z,6.80
2023-01-01T04:59:18.960Z,6.60
2023-01-01T05:01:46.127Z,6.70
2023-01-01T05:04:14.382Z,6.80
2023-01-01T05:06:41.252Z,6.70
2023-01-01T05:09:09.502Z,6.70
2023-01-01T05:11:36.369Z,6.60
2023-01-01T05:14:03.812Z,6.80
2023-01-01T05:16:31.923Z,6.70
2023-01-01T05:18:58.911Z,6.60
2023-01-01T05:21:32.090Z,7.00
2023-01-01T05:24:06.856Z,7.10
2023-01-01T05:26:35.303Z,7.30
2023-01-01T05:29:02.566Z,7.40
2023-01-01T05:31:30.951Z,7.50
2023-01-01T05:36:26.342Z,7.20
2023-01-01T05:38:53.472Z,7.10
2023-01-01T05:41:21.214Z,7.00
2023-01-01T05:43:48.087Z,7.00
2023-01-01T05:46:16.259Z,6.90
2023-01-01T05:48:43.638Z,7.00
2023-01-01T05:51:11.839Z,6.80
2023-01-01T05:53:39.162Z,6.90
2023-01-01T05:56:06.653Z,6.80
2023-01-01T05:58:34.468Z,6.80
2023-01-01T06:01:09.598Z,6.70
2023-01-01T06:03:36.910Z,6.70
2023-01-01T06:06:08.389Z,6.50
2023-01-01T06:08:35.257Z,6.60
2023-01-01T06:11:03.071Z,6.60
2023-01-01T06:13:30.646Z,6.50
2023-01-01T06:15:58.397Z,6.60
2023-01-01T06:18:25.750Z,6.60
2023-01-01T06:20:53.477Z,6.60
2023-01-01T06:23:20.505Z,6.60
2023-01-01T06:25:47.409Z,6.70
2023-01-01T06:28:14.304Z,6.70
2023-01-01T06:30:41.195Z,6.60
2023-01-01T06:33:08.097Z,6.60
2023-01-01T06:35:35.227Z,6.70
2023-01-01T06:38:02.065Z,6.60
2023-01-01T06:40:28.879Z,6.50
2023-01-01T06:42:56.381Z,6.60
2023-01-01T06:45:23.212Z,6.60
2023-01-01T06:47:50.067Z,6.50
2023-01-01T06:50:16.864Z,6.60
2023-01-01T06:52:43.805Z,6.50
2023-01-01T06:55:10.694Z,6.60
2023-01-01T06:57:37.731Z,6.50
2023-01-01T07:00:05.320Z,6.50
2023-01-01T07:02:32.413Z,6.50
2023-01-01T07:04:59.467Z,6.50
2023-01-01T07:07:28.841Z,6.50
2023-01-01T07:09:59.418Z,6.40
2023-01-01T07:12:26.273Z,6.40
2023-01-01T07:14:53.136Z,6.40
2023-01-01T07:17:20.021Z,6.30
2023-01-01T07:19:46.818Z,6.40
2023-01-01T07:22:13.737Z,6.40
2023-01-01T07:24:40.548Z,6.40
2023-01-01T07:27:07.857Z,6.50
2023-01-01T07:29:34.785Z,6.60
2023-01-01T07:32:02.179Z,6.60
2023-01-01T07:34:29.128Z,6.70
2023-01-01T07:36:56.629Z,6.80
2023-01-01T07:39:23.553Z,6.70
2023-01-01T07:41:50.421Z,6.70
2023-01-01T07:44:17.282Z,6.70
2023-01-01T07:46:44.208Z,6.60
2023-01-01T07:49:11.088Z,6.70
2023-01-01T07:51:37.989Z,6.90
2023-01-01T07:54:07.314Z,6.90
2023-01-01T07:56:35.638Z,7.10
2023-01-01T07:59:02.537Z,7.20
2023-01-01T08:01:29.498Z,7.20
2023-01-01T08:03:56.478Z,7.30
2023-01-01T08:06:23.340Z,7.40
2023-01-01T08:08:50.318Z,7.60
2023-01-01T08:11:17.263Z,7.60
2023-01-01T08:13:44.144Z,7.90
2023-01-01T08:16:11.187Z,7.80
2023-01-01T08:18:38.056Z,7.90
2023-01-01T08:21:05.194Z,8.00
2023-01-01T08:23:32.068Z,8.00
2023-01-01T08:26:00.509Z,8.30
2023-01-01T08:28:27.865Z,8.40
2023-01-01T08:30:54.740Z,8.50
2023-01-01T08:33:23.149Z,8.80
2023-01-01T08:35:54.356Z,8.80
2023-01-01T08:38:21.664Z,9.20
2023-01-01T08:40:48.543Z,9.10
2023-01-01T08:43:15.488Z,9.30
2023-01-01T08:45:42.474Z,9.60
2023-01-01T08:48:09.268Z,9.80
2023-01-01T08:50:36.171Z,9.60
2023-01-01T08:53:03.309Z,10.10
2023-01-01T08:55:30.157Z,10.30
2023-01-01T08:57:57.017Z,11.50
2023-01-01T09:00:23.971Z,12.80
2023-01-01T09:02:50.943Z,14.40
2023-01-01T09:05:17.829Z,14.80
2023-01-01T09:07:44.703Z,15.40
2023-01-01T09:10:11.579Z,16.30
2023-01-01T09:12:38.421Z,16.70
2023-01-01T09:15:06.309Z,17.50
2023-01-01T09:17:33.152Z,18.10
2023-01-01T09:20:00.146Z,18.70
2023-01-01T09:22:27.042Z,18.70
2023-01-01T09:24:54.012Z,19.40
2023-01-01T09:27:20.985Z,20.30
2023-01-01T09:29:47.979Z,21.10
2023-01-01T09:32:15.036Z,21.30
2023-01-01T09:34:44.016Z,21.50
2023-01-01T09:37:14.281Z,21.60
2023-01-01T09:39:41.245Z,21.90
2023-01-01T09:42:20.195Z,22.30
2023-01-01T09:45:15.522Z,23.00
2023-01-01T09:47:58.033Z,22.80
2023-01-01T09:50:32.029Z,21.40
2023-01-01T09:53:04.219Z,20.40
2023-01-01T09:55:45.986Z,19.10
2023-01-01T09:58:13.474Z,18.60
2023-01-01T10:00:44.608Z,18.90
2023-01-01T10:03:37.424Z,19.60
2023-01-01T10:06:10.251Z,19.80
2023-01-01T10:08:41.160Z,19.90
2023-01-01T10:11:35.427Z,20.40
2023-01-01T10:14:11.919Z,21.30
2023-01-01T10:16:46.581Z,21.60
2023-01-01T10:19:41.722Z,20.90
2023-01-01T10:22:17.071Z,21.10
2023-01-01T10:24:49.445Z,21.30
2023-01-01T10:27:26.182Z,21.20
2023-01-01T10:29:56.838Z,21.50
2023-01-01T10:32:32.447Z,21.40
2023-01-01T10:35:01.172Z,21.10
2023-01-01T10:37:35.729Z,21.10
2023-01-01T10:40:16.204Z,21.10
2023-01-01T10:42:47.160Z,21.10
2023-01-01T10:45:38.803Z,21.10
2023-01-01T10:48:26.408Z,21.00
2023-01-01T10:51:01.984Z,20.90
2023-01-01T10:53:58.319Z,20.60
2023-01-01T10:56:25.792Z,20.90
2023-01-01T10:58:56.643Z,20.80
2023-01-01T11:01:30.905Z,20.10
2023-01-01T11:04:16.576Z,20.70
2023-01-01T11:06:45.709Z,20.80
2023-01-01T11:09:29.263Z,21.00
2023-01-01T11:12:05.610Z,21.30
2023-01-01T11:14:44.200Z,21.50
2023-01-01T11:17:11.221Z,21.90
2023-01-01T11:19:41.278Z,21.90
2023-01-01T11:22:31.143Z,22.20
2023-01-01T11:25:01.724Z,22.40
2023-01-01T11:27:28.760Z,22.40
2023-01-01T11:30:20.394Z,22.80
2023-01-01T11:32:53.653Z,21.90
2023-01-01T11:35:24.195Z,22.20
2023-01-01T11:37:52.225Z,22.90
2023-01-01T11:40:38.576Z,22.50
2023-01-01T11:43:06.043Z,21.50
2023-01-01T11:45:42.721Z,20.90
2023-01-01T11:48:14.993Z,20.30
2023-01-01T11:50:53.616Z,19.70
2023-01-01T11:53:28.004Z,19.00
2023-01-01T11:56:04.100Z,18.70
2023-01-01T11:58:37.063Z,18.30
2023-01-01T12:01:24.224Z,18.00
2023-01-01T12:04:00.246Z,18.20
2023-01-01T12:06:32.236Z,18.00
2023-01-01T12:09:02.234Z,18.30
2023-01-01T12:11:38.792Z,18.70
2023-01-01T12:14:12.625Z,19.00
2023-01-01T12:16:49.696Z,19.20
2023-01-01T12:19:24.847Z,19.50
2023-01-01T12:21:54.341Z,20.00
2023-01-01T12:24:21.419Z,19.90
2023-01-01T12:26:51.265Z,19.50
2023-01-01T12:29:29.021Z,19.20
2023-01-01T12:31:55.830Z,19.30
2023-01-01T12:34:34.667Z,19.50
2023-01-01T12:37:10.553Z,19.90
2023-01-01T12:39:40.277Z,20.20
2023-01-01T12:42:25.580Z,20.10
2023-01-01T12:45:04.334Z,20.20
2023-01-01T12:47:57.291Z,20.00
2023-01-01T12:50:27.256Z,19.70
2023-01-01T12:53:12.625Z,19.70
2023-01-01T12:55:53.491Z,19.40
2023-01-01T12:58:24.357Z,19.30
2023-01-01T13:00:54.677Z,19.10
2023-01-01T13:03:24.214Z,19.10
2023-01-01T13:05:53.729Z,19.10
2023-01-01T13:08:20.666Z,18.90
2023-01-01T13:10:49.052Z,19.00
2023-01-01T13:13:16.727Z,19.00
2023-01-01T13:15:45.240Z,19.00
2023-01-01T13:18:15.212Z,19.00
2023-01-01T13:20:44.065Z,18.80
2023-01-01T13:23:29.369Z,18.50
2023-01-01T13:26:15.174Z,18.40
2023-01-01T13:28:42.025Z,18.30
2023-01-01T13:31:08.917Z,18.40
2023-01-01T13:33:37.107Z,18.40
2023-01-01T13:36:11.298Z,18.70
2023-01-01T13:38:43.946Z,18.70
2023-01-01T13:41:29.421Z,18.70
2023-01-01T13:43:59.090Z,18.30
2023-01-01T13:46:36.573Z,18.20
2023-01-01T13:49:14.767Z,18.10
2023-01-01T13:52:07.961Z,18.10
2023-01-01T13:54:53.986Z,18.20
2023-01-01T13:57:20.926Z,17.80
2023-01-01T14:00:04.484Z,17.80
2023-01-01T14:02:45.021Z,17.80
2023-01-01T14:05:22.212Z,17.80
2023-01-01T14:07:51.986Z,17.80
2023-01-01T14:10:22.505Z,17.70
2023-01-01T14:12:50.073Z,17.60
2023-01-01T14:15:23.745Z,17.70
2023-01-01T14:17:51.705Z,17.60
2023-01-01T14:20:19.822Z,17.40
2023-01-01T14:22:47.334Z,17.30
2023-01-01T14:25:15.612Z,17.20
2023-01-01T14:27:43.664Z,17.10
2023-01-01T14:30:19.457Z,17.20
2023-01-01T14:32:46.416Z,17.00
2023-01-01T14:35:14.858Z,16.80
2023-01-01T14:37:41.828Z,16.70
2023-01-01T14:40:31.101Z,16.60
2023-01-01T14:43:04.250Z,16.50
2023-01-01T14:45:32.896Z,16.40
2023-01-01T14:48:01.148Z,16.30
2023-01-01T14:50:29.465Z,16.30
2023-01-01T14:53:05.131Z,16.00
2023-01-01T14:55:39.769Z,16.00
2023-01-01T14:58:11.234Z,15.70
2023-01-01T15:00:38.069Z,15.70
2023-01-01T15:03:07.530Z,15.70
2023-01-01T15:05:36.221Z,15.70
2023-01-01T15:08:04.831Z,15.50
2023-01-01T15:10:33.352Z,15.70
2023-01-01T15:13:00.301Z,15.60
2023-01-01T15:15:43.749Z,15.50
2023-01-01T15:18:29.318Z,15.30
2023-01-01T15:20:56.259Z,15.00
2023-01-01T15:23:23.056Z,14.90
2023-01-01T15:25:49.964Z,14.70
2023-01-01T15:28:20.861Z,14.60
2023-01-01T15:30:55.228Z,14.50
2023-01-01T15:33:22.400Z,14.50
2023-01-01T15:35:50.352Z,14.40
2023-01-01T15:38:20.216Z,14.20
2023-01-01T15:40:52.944Z,14.10
2023-01-01T15:43:24.082Z,13.90
2023-01-01T15:45:55.840Z,13.90
2023-01-01T15:48:27.042Z,13.70
2023-01-01T15:50:53.840Z,13.50
2023-01-01T15:53:22.630Z,13.40
2023-01-01T15:55:57.476Z,13.30
2023-01-01T15:58:45.547Z,13.20
2023-01-01T16:01:19.935Z,13.00
2023-01-01T16:03:47.664Z,12.80
2023-01-01T16:06:19.302Z,12.60
2023-01-01T16:08:46.196Z,12.60
2023-01-01T16:11:14.366Z,12.60
2023-01-01T16:13:41.477Z,12.70
2023-01-01T16:16:21.378Z,12.70
2023-01-01T16:18:48.309Z,12.80
2023-01-01T16:21:15.203Z,12.80
2023-01-01T16:23:42.033Z,12.90
2023-01-01T16:26:08.936Z,12.90
2023-01-01T16:28:35.804Z,12.80
2023-01-01T16:31:02.697Z,12.90
2023-01-01T16:33:29.630Z,13.10
2023-01-01T16:35:56.436Z,12.90
2023-01-01T16:38:23.433Z,12.90
2023-01-01T16:40:51.245Z,12.80
2023-01-01T16:43:18.821Z,12.70
2023-01-01T16:45:45.895Z,12.50
2023-01-01T16:48:12.876Z,12.40
2023-01-01T16:50:39.816Z,12.10
2023-01-01T16:53:06.613Z,11.90
2023-01-01T16:55:33.529Z,11.60
2023-01-01T16:58:38.016Z,11.30
2023-01-01T17:00:47.683Z,11.20
2023-01-01T17:03:14.631Z,10.90
2023-01-01T17:05:44.291Z,11.10
2023-01-01T17:08:11.911Z,10.90
2023-01-01T17:10:38.837Z,10.60
2023-01-01T17:13:05.795Z,10.50
2023-01-01T17:15:32.823Z,10.40
2023-01-01T17:17:59.912Z,10.30
2023-01-01T17:20:27.021Z,10.20
2023-01-01T17:22:53.987Z,10.10
2023-01-01T17:25:21.252Z,10.10
2023-01-01T17:27:48.106Z,10.00
2023-01-01T17:30:14.991Z,9.90
2023-01-01T17:32:41.976Z,9.80
2023-01-01T17:35:09.028Z,9.70
2023-01-01T17:37:35.963Z,9.60
2023-01-01T17:40:02.922Z,9.50
2023-01-01T17:42:30.100Z,9.40
2023-01-01T17:44:56.960Z,9.40
2023-01-01T17:47:27.831Z,9.30
2023-01-01T17:49:57.692Z,9.40
2023-01-01T17:52:24.459Z,9.30
2023-01-01T17:54:51.893Z,9.20
2023-01-01T17:57:18.913Z,9.10
2023-01-01T17:59:45.803Z,9.00
2023-01-01T18:02:13.791Z,8.90
2023-01-01T18:04:41.572Z,8.90
2023-01-01T18:07:08.508Z,8.90
2023-01-01T18:09:38.217Z,8.90
2023-01-01T18:12:05.980Z,8.90
2023-01-01T18:14:33.023Z,8.90
2023-01-01T18:17:00.202Z,9.00
2023-01-01T18:19:27.816Z,8.90
2023-01-01T18:21:55.113Z,8.90
2023-01-01T18:24:22.185Z,8.90
2023-01-01T18:26:49.103Z,9.00
2023-01-01T18:29:16.294Z,9.00
2023-01-01T18:31:44.029Z,9.00
2023-01-01T18:34:11.542Z,9.20
2023-01-01T18:36:39.525Z,9.30
2023-01-01T18:39:20.829Z,9.40
2023-01-01T18:42:02.238Z,9.40
2023-01-01T18:44:31.392Z,9.40
2023-01-01T18:47:07.053Z,9.50
2023-01-01T18:49:35.847Z,9.50
2023-01-01T18:52:08.674Z,9.70
2023-01-01T18:54:36.029Z,9.70
2023-01-01T18:57:29.274Z,9.70
2023-01-01T19:00:18.900Z,9.60
2023-01-01T19:02:52.892Z,9.50
2023-01-01T19:05:30.554Z,9.50
2023-01-01T19:08:06.645Z,9.50
2023-01-01T19:10:44.084Z,9.20
2023-01-01T19:13:22.885Z,9.10
2023-01-01T19:15:54.642Z,9.10
2023-01-01T19:18:23.907Z,9.00
2023-01-01T19:21:02.633Z,9.40
2023-01-01T19:23:30.516Z,9.70
2023-01-01T19:26:00.738Z,10.10
2023-01-01T19:28:36.202Z,10.70
2023-01-01T19:31:05.465Z,11.30
2023-01-01T19:33:32.502Z,11.30
2023-01-01T19:35:59.462Z,11.60
2023-01-01T19:38:26.494Z,11.70
2023-01-01T19:40:53.681Z,11.70
2023-01-01T19:43:21.413Z,11.80
2023-01-01T19:45:48.488Z,12.00
2023-01-01T19:48:15.550Z,11.80
2023-01-01T19:50:42.558Z,11.80
2023-01-01T19:53:09.530Z,11.80
2023-01-01T19:55:36.580Z,11.70
2023-01-01T19:58:03.616Z,11.50
2023-01-01T20:00:30.573Z,11.20
2023-01-01T20:03:19.013Z,11.10
2023-01-01T20:05:44.706Z,10.60
2023-01-01T20:08:11.677Z,10.40
2023-01-01T20:10:38.651Z,10.00
2023-01-01T20:13:06.599Z,9.80
2023-01-01T20:15:33.548Z,9.80
2023-01-01T20:18:00.616Z,9.50
2023-01-01T20:20:27.608Z,9.30
2023-01-01T20:22:55.788Z,9.10
2023-01-01T20:25:22.703Z,9.00
2023-01-01T20:28:08.375Z,9.00
2023-01-01T20:30:37.203Z,8.90
2023-01-01T20:33:04.449Z,9.30
2023-01-01T20:35:57.283Z,9.50
2023-01-01T20:38:24.200Z,9.70
2023-01-01T20:40:51.176Z,10.00
2023-01-01T20:43:18.128Z,10.30
2023-01-01T20:45:45.126Z,10.70
2023-01-01T20:48:17.821Z,10.90
2023-01-01T20:50:46.637Z,11.10
2023-01-01T20:53:13.569Z,11.40
2023-01-01T20:55:40.497Z,11.80
2023-01-01T20:58:07.441Z,12.00
2023-01-01T21:00:34.389Z,12.10
2023-01-01T21:03:01.394Z,12.10
2023-01-01T21:05:28.741Z,12.30
2023-01-01T21:07:55.678Z,12.00
2023-01-01T21:10:22.561Z,12.20
2023-01-01T21:12:51.423Z,12.10
2023-01-01T21:15:20.035Z,11.80
2023-01-01T21:17:47.095Z,11.90
2023-01-01T21:20:14.052Z,12.10
2023-01-01T21:22:44.170Z,11.90
2023-01-01T21:25:50.260Z,11.70
2023-01-01T21:28:14.570Z,11.80
2023-01-01T21:30:53.791Z,11.90
2023-01-01T21:33:31.190Z,11.80
2023-01-01T21:36:01.850Z,11.60
2023-01-01T21:38:31.580Z,11.60
2023-01-01T21:41:00.116Z,11.60
2023-01-01T21:43:34.779Z,11.60
2023-01-01T21:46:07.635Z,11.70
2023-01-01T21:48:48.240Z,11.80
2023-01-01T21:51:21.345Z,11.90
2023-01-01T21:53:48.222Z,11.80
2023-01-01T21:56:18.076Z,11.80
2023-01-01T21:59:04.153Z,11.50
2023-01-01T22:01:38.788Z,11.40
2023-01-01T22:04:08.553Z,11.10
2023-01-01T22:06:37.224Z,11.00
2023-01-01T22:09:13.650Z,10.90
2023-01-01T22:11:40.467Z,10.40
2023-01-01T22:14:21.909Z,10.00
2023-01-01T22:16:51.961Z,9.80
2023-01-01T22:19:19.670Z,9.70
2023-01-01T22:21:46.699Z,9.50
2023-01-01T22:24:22.868Z,9.60
2023-01-01T22:26:49.743Z,9.40
2023-01-01T22:29:21.826Z,9.30
2023-01-01T22:31:53.881Z,9.20
2023-01-01T22:34:22.212Z,9.20
2023-01-01T22:36:49.089Z,9.20
2023-01-01T22:39:26.542Z,9.20
2023-01-01T22:41:54.232Z,9.20
2023-01-01T22:44:21.201Z,9.40
2023-01-01T22:46:48.226Z,9.50
2023-01-01T22:49:15.076Z,9.70
2023-01-01T22:51:43.212Z,10.00
2023-01-01T22:54:10.027Z,10.10
2023-01-01T22:56:36.968Z,10.30
2023-01-01T22:59:03.960Z,10.40
2023-01-01T23:01:30.928Z,10.50
2023-01-01T23:03:57.958Z,10.80
2023-01-01T23:06:25.116Z,10.90
2023-01-01T23:08:52.798Z,11.10
2023-01-01T23:11:19.982Z,11.10
2023-01-01T23:14:07.086Z,11.20
2023-01-01T23:16:34.196Z,11.40
2023-01-01T23:19:01.032Z,11.40
2023-01-01T23:21:28.472Z,11.40
2023-01-01T23:23:56.354Z,11.40
2023-01-01T23:26:23.696Z,11.30
2023-01-01T23:28:50.597Z,11.10
2023-01-01T23:31:24.769Z,11.00
2023-01-01T23:33:52.703Z,10.90
2023-01-01T23:36:19.712Z,10.80
2023-01-01T23:38:46.802Z,10.70
2023-01-01T23:41:13.654Z,10.70
2023-01-01T23:43:43.450Z,10.80
2023-01-01T23:46:11.958Z,10.60
2023-01-01T23:48:39.027Z,10.70
2023-01-01T23:51:05.944Z,10.70
2023-01-01T23:53:32.838Z,10.80
2023-01-01T23:55:59.665Z,10.80
2023-01-01T23:58:26.518Z,10.90
